Time;durP1;ratioP1;P1;durP2;ratioP2;P2;SDS_P1;SDS_P2;PMS_P1;PMS_P2;Temp;Humidity;BMP_temperature;BMP_pressure;BME280_temperature;BME280_humidity;BME280_pressure;Samples;Min_cycle;Max_cycle;Signal;HPM_P1;HPM_P2
2021/12/20 00:02:19;;;;;;;9.18;1.52;;;;;;;;;;5063782;28;20056;-65
2021/12/20 00:04:50;;;;;;;13.25;2.33;;;;;;;;;;5059957;28;20053;-65
2021/12/20 00:07:17;;;;;;;15.98;2.45;;;;;;;;;;5059341;28;20500;-65
2021/12/20 00:09:44;;;;;;;8.38;1.50;;;;;;;;;;5062837;28;20052;-65
2021/12/20 00:12:10;;;;;;;13.35;1.60;;;;;;;;;;5065218;28;20053;-65
2021/12/20 00:14:37;;;;;;;11.35;2.20;;;;;;;;;;5056889;28;20053;-65
2021/12/20 00:17:04;;;;;;;8.60;1.83;;;;;;;;;;5056437;28;20066;-66
2021/12/20 00:19:30;;;;;;;23.40;1.92;;;;;;;;;;5058887;28;20055;-66
2021/12/20 00:21:56;;;;;;;10.95;1.88;;;;;;;;;;5064041;28;20433;-66
2021/12/20 00:24:26;;;;;;;12.23;1.80;;;;;;;;;;5059795;28;20078;-65
2021/12/20 00:26:52;;;;;;;13.48;2.00;;;;;;;;;;5064146;28;20056;-65
2021/12/20 00:29:19;;;;;;;15.73;2.30;;;;;;;;;;5064505;28;20041;-65
2021/12/20 00:31:45;;;;;;;7.20;1.48;;;;;;;;;;5057035;28;20042;-65
2021/12/20 00:34:11;;;;;;;7.85;1.90;;;;;;;;;;5056159;28;20037;-65
2021/12/20 00:36:38;;;;;;;14.50;2.45;;;;;;;;;;5062974;28;20055;-65
2021/12/20 00:41:49;;;;;;;15.07;1.92;;;;;;;;;;5057870;28;20872;-65
2021/12/20 00:44:15;;;;;;;14.50;2.75;;;;;;;;;;5063920;28;20056;-65
2021/12/20 00:46:52;;;;;;;16.13;2.10;;;;;;;;;;5057889;28;20199;-65
2021/12/20 00:49:18;;;;;;;15.00;2.33;;;;;;;;;;5056025;28;20053;-65
2021/12/20 00:51:44;;;;;;;17.45;2.20;;;;;;;;;;5056982;28;20044;-65
2021/12/20 00:54:11;;;;;;;9.20;2.20;;;;;;;;;;5063523;28;20044;-66
2021/12/20 00:56:37;;;;;;;15.20;2.25;;;;;;;;;;5064879;28;20067;-65
2021/12/20 00:59:03;;;;;;;11.82;2.42;;;;;;;;;;5058572;28;20053;-65
2021/12/20 01:01:30;;;;;;;9.88;1.85;;;;;;;;;;5058050;28;20056;-65
2021/12/20 01:03:56;;;;;;;15.60;2.20;;;;;;;;;;5058088;28;20048;-65
2021/12/20 01:06:22;;;;;;;15.55;2.17;;;;;;;;;;5059214;28;20341;-65
2021/12/20 01:08:50;;;;;;;21.25;2.75;;;;;;;;;;5059574;28;20053;-66
2021/12/20 01:11:22;;;;;;;12.55;2.13;;;;;;;;;;5060232;28;20036;-65
2021/12/20 01:13:48;;;;;;;20.95;2.80;;;;;;;;;;5036896;28;20041;-65
2021/12/20 01:16:15;;;;;;;18.02;2.20;;;;;;;;;;5042367;28;20059;-65
2021/12/20 01:18:41;;;;;;;22.38;2.97;;;;;;;;;;5053477;28;20059;-65
2021/12/20 01:21:08;;;;;;;18.10;2.65;;;;;;;;;;5053873;28;20052;-65
2021/12/20 01:23:36;;;;;;;12.52;2.13;;;;;;;;;;5053651;28;20067;-66
2021/12/20 01:26:03;;;;;;;21.20;2.57;;;;;;;;;;5051344;28;20067;-65
2021/12/20 01:28:30;;;;;;;19.02;2.33;;;;;;;;;;5057190;28;20292;-64
2021/12/20 01:30:56;;;;;;;17.95;2.63;;;;;;;;;;5061758;28;20616;-64
2021/12/20 01:33:22;;;;;;;17.80;2.50;;;;;;;;;;5060350;28;20048;-64
2021/12/20 01:35:49;;;;;;;13.00;2.25;;;;;;;;;;5057161;28;20040;-64
2021/12/20 01:38:15;;;;;;;17.17;2.08;;;;;;;;;;5060348;28;20064;-64
2021/12/20 01:40:42;;;;;;;16.42;2.40;;;;;;;;;;5051075;28;20048;-64
2021/12/20 01:43:10;;;;;;;17.27;2.67;;;;;;;;;;5049955;28;20053;-65
2021/12/20 01:45:37;;;;;;;18.02;2.97;;;;;;;;;;5051291;28;20075;-64
2021/12/20 01:48:07;;;;;;;15.45;2.30;;;;;;;;;;5051351;28;20058;-65
2021/12/20 01:50:49;;;;;;;24.98;2.33;;;;;;;;;;5058356;28;20221;-64
2021/12/20 01:53:22;;;;;;;15.75;2.25;;;;;;;;;;5056247;28;20044;-64
2021/12/20 01:55:49;;;;;;;21.08;3.03;;;;;;;;;;5054333;28;20055;-64
2021/12/20 01:58:15;;;;;;;22.13;2.42;;;;;;;;;;5050967;28;20055;-64
2021/12/20 02:01:02;;;;;;;20.55;2.45;;;;;;;;;;5052030;28;20666;-64
2021/12/20 02:03:29;;;;;;;17.42;2.45;;;;;;;;;;5058638;28;20062;-64
2021/12/20 02:05:58;;;;;;;17.35;2.47;;;;;;;;;;5054101;28;20059;-64
2021/12/20 02:08:28;;;;;;;18.35;2.30;;;;;;;;;;5056017;28;20060;-65
2021/12/20 02:10:58;;;;;;;12.73;1.95;;;;;;;;;;5056542;28;20508;-64
2021/12/20 02:13:28;;;;;;;17.73;2.08;;;;;;;;;;5057943;28;20055;-64
2021/12/20 02:15:55;;;;;;;18.73;2.97;;;;;;;;;;5052467;28;20843;-64
2021/12/20 02:18:21;;;;;;;19.10;2.67;;;;;;;;;;5056720;28;20056;-64
2021/12/20 02:20:48;;;;;;;18.80;2.40;;;;;;;;;;5046801;28;20663;-64
2021/12/20 02:23:14;;;;;;;16.20;2.25;;;;;;;;;;5068696;28;20052;-64
2021/12/20 02:25:41;;;;;;;28.90;2.97;;;;;;;;;;5065260;28;20048;-65
2021/12/20 02:28:11;;;;;;;22.02;2.58;;;;;;;;;;5066966;28;20059;-64
2021/12/20 02:38:41;;;;;;;13.73;2.00;;;;;;;;;;5059920;28;20050;-64
2021/12/20 02:41:11;;;;;;;21.10;3.90;;;;;;;;;;5048242;28;20052;-64
2021/12/20 02:43:40;;;;;;;14.55;2.20;;;;;;;;;;5060449;28;20052;-64
2021/12/20 02:49:04;;;;;;;22.50;2.72;;;;;;;;;;5059539;28;20086;-64
2021/12/20 02:51:30;;;;;;;25.20;2.92;;;;;;;;;;5063891;28;20044;-64
2021/12/20 02:53:58;;;;;;;17.73;2.08;;;;;;;;;;5064821;28;20063;-64
2021/12/20 02:56:24;;;;;;;13.23;2.08;;;;;;;;;;5068517;28;20057;-64
2021/12/20 02:58:50;;;;;;;21.48;3.92;;;;;;;;;;5067908;28;20051;-65
2021/12/20 03:01:17;;;;;;;23.33;2.55;;;;;;;;;;5067782;28;20052;-64
2021/12/20 03:03:44;;;;;;;21.33;3.08;;;;;;;;;;5068120;28;20047;-64
2021/12/20 03:06:14;;;;;;;20.27;2.55;;;;;;;;;;5061689;28;20049;-64
2021/12/20 03:08:45;;;;;;;23.63;3.08;;;;;;;;;;5064950;28;20372;-64
2021/12/20 03:11:11;;;;;;;22.58;3.58;;;;;;;;;;5054220;28;20654;-64
2021/12/20 03:13:38;;;;;;;21.83;2.30;;;;;;;;;;5067155;28;20699;-64
2021/12/20 03:16:05;;;;;;;23.52;2.90;;;;;;;;;;5064461;28;20036;-64
2021/12/20 03:18:31;;;;;;;23.40;3.05;;;;;;;;;;5068013;28;20072;-64
2021/12/20 03:20:57;;;;;;;17.13;2.58;;;;;;;;;;5068341;28;20689;-64
2021/12/20 03:23:24;;;;;;;25.17;2.85;;;;;;;;;;5065677;28;20045;-64
2021/12/20 03:25:50;;;;;;;17.95;2.22;;;;;;;;;;5057137;28;20056;-64
2021/12/20 03:28:16;;;;;;;12.30;2.45;;;;;;;;;;5060797;28;20044;-64
2021/12/20 03:30:44;;;;;;;14.38;2.05;;;;;;;;;;5063011;28;20048;-64
2021/12/20 03:33:10;;;;;;;16.75;2.25;;;;;;;;;;5059738;28;20060;-65
2021/12/20 03:35:37;;;;;;;22.90;2.60;;;;;;;;;;5059813;28;20060;-64
2021/12/20 03:38:03;;;;;;;19.75;2.58;;;;;;;;;;5065889;28;20600;-65
2021/12/20 03:40:29;;;;;;;23.60;2.67;;;;;;;;;;5059168;28;20558;-64
2021/12/20 03:42:56;;;;;;;24.23;2.95;;;;;;;;;;5056137;28;20508;-64
2021/12/20 03:45:22;;;;;;;24.08;2.35;;;;;;;;;;5057753;28;20456;-64
2021/12/20 03:47:48;;;;;;;20.67;3.10;;;;;;;;;;5063241;28;20051;-64
2021/12/20 03:50:15;;;;;;;19.70;2.67;;;;;;;;;;5063093;28;20378;-64
2021/12/20 03:52:41;;;;;;;16.85;2.53;;;;;;;;;;5064181;28;20048;-64
2021/12/20 03:55:09;;;;;;;19.73;2.30;;;;;;;;;;5057912;28;20927;-65
2021/12/20 03:57:35;;;;;;;16.77;2.50;;;;;;;;;;5054973;28;20052;-64
2021/12/20 04:00:03;;;;;;;23.17;3.50;;;;;;;;;;5057382;28;20052;-64
2021/12/20 04:02:37;;;;;;;17.15;2.97;;;;;;;;;;5056667;28;20052;-64
2021/12/20 04:05:04;;;;;;;16.77;2.60;;;;;;;;;;5061023;28;20123;-64
2021/12/20 04:07:30;;;;;;;18.10;2.10;;;;;;;;;;5056195;28;20060;-64
2021/12/20 04:09:57;;;;;;;22.33;2.63;;;;;;;;;;5062628;28;20048;-64
2021/12/20 04:12:23;;;;;;;15.73;2.95;;;;;;;;;;5064522;28;20049;-64
2021/12/20 04:14:49;;;;;;;22.73;3.22;;;;;;;;;;5061740;28;20072;-64
2021/12/20 04:17:16;;;;;;;23.25;3.15;;;;;;;;;;5058572;28;20056;-64
2021/12/20 04:19:42;;;;;;;15.23;2.55;;;;;;;;;;5062649;28;20055;-64
2021/12/20 04:22:08;;;;;;;17.27;2.55;;;;;;;;;;5057807;28;20056;-64
2021/12/20 04:24:35;;;;;;;17.52;2.15;;;;;;;;;;5058120;28;20521;-64
2021/12/20 04:27:01;;;;;;;24.15;2.45;;;;;;;;;;5061531;28;20456;-64
2021/12/20 04:29:29;;;;;;;17.77;2.03;;;;;;;;;;5059534;28;20063;-64
2021/12/20 04:31:55;;;;;;;21.38;3.58;;;;;;;;;;5055980;28;20413;-64
2021/12/20 04:34:22;;;;;;;16.10;2.35;;;;;;;;;;5056710;28;20132;-64
2021/12/20 04:36:48;;;;;;;21.25;2.63;;;;;;;;;;5059578;28;20051;-64
2021/12/20 04:39:19;;;;;;;18.80;2.40;;;;;;;;;;5059087;28;20053;-64
2021/12/20 04:41:45;;;;;;;17.98;3.08;;;;;;;;;;5056337;28;20048;-64
2021/12/20 04:44:11;;;;;;;19.17;2.55;;;;;;;;;;5060438;28;20313;-64
2021/12/20 04:46:38;;;;;;;19.05;2.20;;;;;;;;;;5060959;28;20045;-64
2021/12/20 04:49:04;;;;;;;20.33;2.30;;;;;;;;;;5060230;28;20529;-64
2021/12/20 04:51:30;;;;;;;15.82;2.35;;;;;;;;;;5059843;28;20044;-64
2021/12/20 04:53:57;;;;;;;18.77;2.20;;;;;;;;;;5057431;28;20055;-64
2021/12/20 04:56:23;;;;;;;15.40;2.20;;;;;;;;;;5059397;28;20070;-64
2021/12/20 04:58:49;;;;;;;23.17;2.28;;;;;;;;;;5062338;28;20051;-64
2021/12/20 05:01:16;;;;;;;14.05;2.00;;;;;;;;;;5060067;28;20490;-64
2021/12/20 05:03:42;;;;;;;13.25;2.22;;;;;;;;;;5062972;28;20419;-64
2021/12/20 05:06:09;;;;;;;14.35;1.95;;;;;;;;;;5056119;28;20620;-64
2021/12/20 05:08:45;;;;;;;12.85;1.95;;;;;;;;;;5057269;28;20045;-64
2021/12/20 05:11:12;;;;;;;19.27;2.30;;;;;;;;;;5057598;28;20068;-64
2021/12/20 05:13:38;;;;;;;17.90;1.55;;;;;;;;;;5056920;28;20048;-64
2021/12/20 05:16:04;;;;;;;20.02;2.35;;;;;;;;;;5062041;28;20051;-64
2021/12/20 05:18:31;;;;;;;11.35;1.80;;;;;;;;;;5062181;28;20067;-64
2021/12/20 05:20:57;;;;;;;24.02;2.90;;;;;;;;;;5058983;28;20052;-64
2021/12/20 05:23:23;;;;;;;12.38;2.13;;;;;;;;;;5055764;28;20048;-64
2021/12/20 05:25:50;;;;;;;20.10;2.92;;;;;;;;;;5054444;28;20066;-64
2021/12/20 05:28:16;;;;;;;12.45;2.08;;;;;;;;;;5055542;28;20056;-64
2021/12/20 05:30:45;;;;;;;21.92;3.10;;;;;;;;;;5054248;28;20045;-64
2021/12/20 05:33:11;;;;;;;20.05;3.10;;;;;;;;;;5054005;28;20067;-64
2021/12/20 05:35:38;;;;;;;17.00;1.75;;;;;;;;;;5061588;28;20450;-64
2021/12/20 05:38:04;;;;;;;15.60;2.05;;;;;;;;;;5055691;28;20048;-64
2021/12/20 05:40:30;;;;;;;11.57;1.85;;;;;;;;;;5060716;28;20050;-64
2021/12/20 05:42:57;;;;;;;15.55;2.28;;;;;;;;;;5052144;28;20052;-64
2021/12/20 05:45:23;;;;;;;16.75;2.60;;;;;;;;;;5065474;28;20090;-65
2021/12/20 05:47:50;;;;;;;13.38;2.33;;;;;;;;;;5059884;28;20060;-64
2021/12/20 05:50:18;;;;;;;16.27;2.00;;;;;;;;;;5060288;28;20044;-64
2021/12/20 05:52:44;;;;;;;11.00;1.90;;;;;;;;;;5062241;28;20043;-64
2021/12/20 05:55:10;;;;;;;13.43;3.10;;;;;;;;;;5057006;28;20051;-64
2021/12/20 05:57:37;;;;;;;14.27;1.90;;;;;;;;;;5053529;28;20051;-64
2021/12/20 06:00:05;;;;;;;33.03;2.72;;;;;;;;;;5059870;28;20048;-64
2021/12/20 06:02:31;;;;;;;11.48;2.55;;;;;;;;;;5054880;28;20045;-64
2021/12/20 06:04:57;;;;;;;14.95;2.22;;;;;;;;;;5054937;28;20108;-65
2021/12/20 06:07:24;;;;;;;15.10;1.95;;;;;;;;;;5057563;28;20048;-64
2021/12/20 06:09:50;;;;;;;14.23;2.13;;;;;;;;;;5061356;28;20050;-64
2021/12/20 06:12:16;;;;;;;10.48;1.77;;;;;;;;;;5065479;28;20429;-64
2021/12/20 06:14:43;;;;;;;14.77;2.05;;;;;;;;;;5055700;28;20395;-64
2021/12/20 06:17:09;;;;;;;13.48;2.30;;;;;;;;;;5056940;28;20040;-65
2021/12/20 06:19:35;;;;;;;11.73;1.70;;;;;;;;;;5063841;28;20040;-64
2021/12/20 06:22:04;;;;;;;15.02;2.10;;;;;;;;;;5062342;28;20047;-64
2021/12/20 06:24:30;;;;;;;18.77;2.90;;;;;;;;;;5064193;28;20048;-65
2021/12/20 06:26:56;;;;;;;19.92;4.50;;;;;;;;;;5065043;28;20053;-64
2021/12/20 06:29:23;;;;;;;13.00;2.47;;;;;;;;;;5063832;28;20452;-64
2021/12/20 06:31:49;;;;;;;11.60;2.80;;;;;;;;;;5056954;28;21180;-64
2021/12/20 06:34:15;;;;;;;16.98;2.40;;;;;;;;;;5060345;28;20493;-64
2021/12/20 06:36:41;;;;;;;15.55;2.42;;;;;;;;;;5057150;28;20051;-64
2021/12/20 06:39:08;;;;;;;16.17;2.53;;;;;;;;;;5054883;28;20061;-65
2021/12/20 06:41:35;;;;;;;15.57;3.25;;;;;;;;;;5066156;28;21175;-64
2021/12/20 06:44:02;;;;;;;21.23;3.15;;;;;;;;;;5063057;28;20692;-64
2021/12/20 06:46:28;;;;;;;12.63;2.78;;;;;;;;;;5060044;28;20048;-65
2021/12/20 06:48:54;;;;;;;14.02;2.08;;;;;;;;;;5060799;28;20067;-64
2021/12/20 06:51:21;;;;;;;12.18;2.15;;;;;;;;;;5062056;28;20064;-64
2021/12/20 06:53:47;;;;;;;18.83;2.60;;;;;;;;;;5062186;28;20052;-64
2021/12/20 06:56:13;;;;;;;14.75;2.15;;;;;;;;;;5060428;28;20059;-64
2021/12/20 06:58:40;;;;;;;21.45;2.28;;;;;;;;;;5060566;28;20052;-64
2021/12/20 07:01:06;;;;;;;17.25;1.98;;;;;;;;;;5059368;28;20377;-64
2021/12/20 07:03:32;;;;;;;18.55;2.47;;;;;;;;;;5063592;28;20045;-65
2021/12/20 07:05:59;;;;;;;16.10;2.78;;;;;;;;;;5060333;28;20391;-64
2021/12/20 07:08:25;;;;;;;16.52;2.28;;;;;;;;;;5064701;28;20400;-65
2021/12/20 07:10:51;;;;;;;14.95;2.30;;;;;;;;;;5063427;28;20047;-65
2021/12/20 07:13:18;;;;;;;12.70;2.08;;;;;;;;;;5050850;28;20044;-64
2021/12/20 07:15:44;;;;;;;12.52;1.85;;;;;;;;;;5057682;28;20045;-64
2021/12/20 07:18:10;;;;;;;19.15;3.05;;;;;;;;;;5062350;28;20049;-64
2021/12/20 07:20:37;;;;;;;14.15;2.13;;;;;;;;;;5063715;28;20040;-65
2021/12/20 07:23:04;;;;;;;12.00;2.50;;;;;;;;;;5067926;28;20896;-64
2021/12/20 07:25:31;;;;;;;12.33;2.07;;;;;;;;;;5066797;28;20048;-64
2021/12/20 07:27:57;;;;;;;17.33;2.67;;;;;;;;;;5061751;28;20695;-64
2021/12/20 07:30:24;;;;;;;18.25;2.53;;;;;;;;;;5061859;28;20053;-64
2021/12/20 07:32:50;;;;;;;17.23;2.42;;;;;;;;;;5064869;28;20040;-64
2021/12/20 07:35:17;;;;;;;16.10;2.03;;;;;;;;;;5066023;28;20045;-64
2021/12/20 07:37:44;;;;;;;14.10;2.05;;;;;;;;;;5059027;28;20368;-64
2021/12/20 07:40:11;;;;;;;13.00;1.88;;;;;;;;;;5057747;28;20718;-64
2021/12/20 07:42:37;;;;;;;21.27;2.38;;;;;;;;;;5056865;28;20049;-64
2021/12/20 07:45:03;;;;;;;14.88;2.92;;;;;;;;;;5059627;28;20064;-64
2021/12/20 07:47:44;;;;;;;14.43;1.90;;;;;;;;;;5064389;28;20044;-64
2021/12/20 07:50:11;;;;;;;11.77;1.73;;;;;;;;;;5052456;28;20064;-64
2021/12/20 07:52:39;;;;;;;10.77;1.42;;;;;;;;;;5063522;28;20055;-65
2021/12/20 07:55:06;;;;;;;12.65;1.98;;;;;;;;;;5057417;28;20101;-64
2021/12/20 07:57:32;;;;;;;13.70;1.70;;;;;;;;;;5058628;28;20445;-64
2021/12/20 07:59:58;;;;;;;10.75;2.00;;;;;;;;;;5057182;28;20048;-65
2021/12/20 08:02:25;;;;;;;11.07;1.90;;;;;;;;;;5056680;28;20095;-64
2021/12/20 08:04:51;;;;;;;10.75;2.50;;;;;;;;;;5056760;28;20045;-64
2021/12/20 08:07:21;;;;;;;21.50;2.78;;;;;;;;;;5058923;28;20066;-64
2021/12/20 08:09:48;;;;;;;13.23;2.10;;;;;;;;;;5061091;28;20044;-64
2021/12/20 08:12:15;;;;;;;16.15;2.88;;;;;;;;;;5067211;28;20465;-64
2021/12/20 08:14:41;;;;;;;17.75;2.65;;;;;;;;;;5063879;28;20078;-64
2021/12/20 08:17:07;;;;;;;14.35;2.30;;;;;;;;;;5066659;28;20074;-64
2021/12/20 08:19:34;;;;;;;15.55;2.63;;;;;;;;;;5064154;28;20087;-64
2021/12/20 08:22:00;;;;;;;11.32;2.10;;;;;;;;;;5063888;28;20055;-64
2021/12/20 08:24:26;;;;;;;18.77;2.83;;;;;;;;;;5058645;28;20071;-63
2021/12/20 08:26:53;;;;;;;12.18;2.08;;;;;;;;;;5058107;28;20059;-64
2021/12/20 08:29:19;;;;;;;15.85;2.95;;;;;;;;;;5058999;28;20089;-63
2021/12/20 08:31:45;;;;;;;17.05;2.53;;;;;;;;;;5056675;28;20416;-63
2021/12/20 08:34:11;;;;;;;14.68;2.00;;;;;;;;;;5057697;28;20049;-63
2021/12/20 08:36:38;;;;;;;16.67;3.50;;;;;;;;;;5057820;28;20055;-63
2021/12/20 08:39:04;;;;;;;11.20;2.33;;;;;;;;;;5047972;28;20048;-63
2021/12/20 08:41:31;;;;;;;17.05;2.20;;;;;;;;;;5056116;28;20049;-64
2021/12/20 08:43:57;;;;;;;13.95;2.65;;;;;;;;;;5054488;28;20078;-64
2021/12/20 08:46:24;;;;;;;10.18;2.08;;;;;;;;;;5045117;28;20053;-63
2021/12/20 08:48:52;;;;;;;15.75;2.25;;;;;;;;;;5060760;28;20036;-64
2021/12/20 08:51:18;;;;;;;17.03;2.50;;;;;;;;;;5063691;28;20060;-63
2021/12/20 08:53:45;;;;;;;17.00;2.33;;;;;;;;;;5067770;28;20048;-63
2021/12/20 08:56:11;;;;;;;15.43;2.78;;;;;;;;;;5055923;28;20707;-64
2021/12/20 08:58:37;;;;;;;19.15;2.33;;;;;;;;;;5057945;28;20054;-63
2021/12/20 09:01:04;;;;;;;17.85;2.33;;;;;;;;;;5046157;28;20063;-63
2021/12/20 09:03:30;;;;;;;14.02;2.13;;;;;;;;;;5062052;28;20522;-64
2021/12/20 09:05:57;;;;;;;10.73;2.30;;;;;;;;;;5066540;28;20115;-64
2021/12/20 09:08:23;;;;;;;11.85;2.83;;;;;;;;;;5064109;28;20048;-64
2021/12/20 09:10:50;;;;;;;15.98;2.10;;;;;;;;;;5056941;28;20045;-64
2021/12/20 09:13:16;;;;;;;15.75;2.22;;;;;;;;;;5058157;28;20052;-64
2021/12/20 09:15:43;;;;;;;18.40;2.88;;;;;;;;;;5057027;28;20070;-64
2021/12/20 09:18:09;;;;;;;18.23;3.17;;;;;;;;;;5054202;28;20058;-64
2021/12/20 09:20:37;;;;;;;19.85;5.20;;;;;;;;;;5059111;28;20429;-64
2021/12/20 09:23:05;;;;;;;13.57;2.90;;;;;;;;;;5062400;28;20059;-64
2021/12/20 09:25:33;;;;;;;13.73;2.40;;;;;;;;;;5064125;28;20428;-64
2021/12/20 09:28:00;;;;;;;18.00;2.58;;;;;;;;;;5056316;28;20055;-63
2021/12/20 09:30:28;;;;;;;11.25;2.70;;;;;;;;;;5062567;28;20040;-64
2021/12/20 09:32:59;;;;;;;14.57;1.92;;;;;;;;;;5059485;28;20548;-64
2021/12/20 09:35:25;;;;;;;13.32;2.10;;;;;;;;;;5063125;28;20036;-64
2021/12/20 09:37:52;;;;;;;9.43;2.15;;;;;;;;;;5063384;28;20044;-63
2021/12/20 09:40:30;;;;;;;9.68;1.88;;;;;;;;;;5064798;28;20707;-63
2021/12/20 09:42:58;;;;;;;12.10;2.17;;;;;;;;;;5058780;28;20139;-63
2021/12/20 09:45:25;;;;;;;11.05;2.30;;;;;;;;;;5057333;28;20146;-63
2021/12/20 09:47:51;;;;;;;14.93;2.15;;;;;;;;;;5062869;28;20060;-63
2021/12/20 09:50:18;;;;;;;12.55;2.83;;;;;;;;;;5064280;28;20044;-63
2021/12/20 09:52:44;;;;;;;11.70;1.80;;;;;;;;;;5064927;28;20116;-63
2021/12/20 09:55:11;;;;;;;12.15;2.05;;;;;;;;;;5057507;28;20045;-64
2021/12/20 09:57:39;;;;;;;11.45;2.00;;;;;;;;;;5060947;28;20041;-63
2021/12/20 10:00:07;;;;;;;12.97;1.83;;;;;;;;;;5063669;28;20063;-63
2021/12/20 10:02:33;;;;;;;11.25;2.10;;;;;;;;;;5065947;28;20670;-64
2021/12/20 10:05:00;;;;;;;16.38;2.40;;;;;;;;;;5063699;28;20098;-63
2021/12/20 10:07:28;;;;;;;11.45;2.00;;;;;;;;;;5064631;28;20162;-64
2021/12/20 10:09:55;;;;;;;17.58;2.30;;;;;;;;;;5055173;28;20675;-64
2021/12/20 10:12:22;;;;;;;13.38;2.35;;;;;;;;;;5055116;28;20432;-62
2021/12/20 10:15:06;;;;;;;17.90;2.57;;;;;;;;;;5053697;28;20246;-63
2021/12/20 10:17:48;;;;;;;19.92;2.95;;;;;;;;;;5062033;28;20295;-63
2021/12/20 10:20:23;;;;;;;14.63;2.60;;;;;;;;;;5062548;28;20135;-63
2021/12/20 10:22:51;;;;;;;21.95;3.45;;;;;;;;;;5062101;28;20698;-62
2021/12/20 10:25:27;;;;;;;11.85;2.83;;;;;;;;;;5064767;28;20121;-63
2021/12/20 10:28:02;;;;;;;23.48;3.85;;;;;;;;;;5062457;28;20059;-63
2021/12/20 10:30:32;;;;;;;23.77;3.72;;;;;;;;;;5063258;28;20059;-64
2021/12/20 10:32:59;;;;;;;20.23;4.30;;;;;;;;;;5062526;28;20153;-63
2021/12/20 10:35:26;;;;;;;28.10;4.90;;;;;;;;;;5045123;28;20087;-63
2021/12/20 10:37:57;;;;;;;23.35;3.78;;;;;;;;;;5064455;28;20041;-63
2021/12/20 10:40:23;;;;;;;20.33;4.10;;;;;;;;;;5057780;28;20056;-63
2021/12/20 10:42:51;;;;;;;21.33;4.22;;;;;;;;;;5056676;28;20058;-64
2021/12/20 10:45:20;;;;;;;20.73;4.57;;;;;;;;;;5057961;28;20748;-63
2021/12/20 10:47:48;;;;;;;22.52;4.68;;;;;;;;;;5063492;28;20356;-64
2021/12/20 10:50:23;;;;;;;26.98;4.00;;;;;;;;;;5063474;28;20040;-64
2021/12/20 10:52:50;;;;;;;21.10;4.20;;;;;;;;;;5064343;28;20047;-63
2021/12/20 10:55:37;;;;;;;18.05;3.55;;;;;;;;;;5066537;28;20449;-63
2021/12/20 10:58:16;;;;;;;16.45;3.33;;;;;;;;;;5057139;28;20041;-63
2021/12/20 11:00:44;;;;;;;22.17;3.85;;;;;;;;;;5059293;28;20048;-63
2021/12/20 11:03:24;;;;;;;30.57;4.70;;;;;;;;;;5058265;28;20052;-63
2021/12/20 11:11:22;;;;;;;22.65;4.78;;;;;;;;;;5067215;28;20172;-63
2021/12/20 11:13:48;;;;;;;23.02;4.20;;;;;;;;;;5066400;28;20076;-63
2021/12/20 11:16:44;;;;;;;26.92;4.53;;;;;;;;;;5065000;28;20045;-63
2021/12/20 11:19:17;;;;;;;18.13;3.63;;;;;;;;;;5056353;28;20070;-63
2021/12/20 11:21:51;;;;;;;19.13;3.85;;;;;;;;;;5049439;28;20074;-63
2021/12/20 11:24:18;;;;;;;25.80;5.13;;;;;;;;;;5064170;28;20425;-63
2021/12/20 11:26:45;;;;;;;24.15;4.60;;;;;;;;;;5061171;28;20655;-63
2021/12/20 11:29:11;;;;;;;21.05;4.55;;;;;;;;;;5067078;28;20058;-63
2021/12/20 11:31:38;;;;;;;29.00;4.55;;;;;;;;;;5065226;28;20052;-64
2021/12/20 11:34:05;;;;;;;27.13;4.95;;;;;;;;;;5053658;28;20389;-63
2021/12/20 11:36:32;;;;;;;27.42;4.20;;;;;;;;;;5058110;28;20052;-63
2021/12/20 11:38:58;;;;;;;26.95;5.13;;;;;;;;;;5063887;28;20055;-64
2021/12/20 11:41:29;;;;;;;27.15;4.97;;;;;;;;;;5065161;28;20053;-63
2021/12/20 11:43:55;;;;;;;23.40;3.60;;;;;;;;;;5058501;28;20075;-63
2021/12/20 11:46:23;;;;;;;28.67;4.55;;;;;;;;;;5058533;28;20059;-63
2021/12/20 11:48:50;;;;;;;30.90;5.03;;;;;;;;;;5060511;28;20138;-64
2021/12/20 11:51:17;;;;;;;17.33;3.58;;;;;;;;;;5061745;28;20383;-63
2021/12/20 11:53:44;;;;;;;31.02;5.38;;;;;;;;;;5059383;28;20665;-64
2021/12/20 11:56:10;;;;;;;14.98;3.22;;;;;;;;;;5058215;28;20047;-63
2021/12/20 11:58:44;;;;;;;20.67;3.70;;;;;;;;;;5058500;28;20070;-63
2021/12/20 12:01:18;;;;;;;29.63;4.90;;;;;;;;;;5057418;28;20424;-63
2021/12/20 12:03:52;;;;;;;19.63;3.38;;;;;;;;;;5062077;28;20052;-63
2021/12/20 12:06:29;;;;;;;25.30;3.67;;;;;;;;;;5061100;28;20048;-63
2021/12/20 12:08:58;;;;;;;19.52;3.75;;;;;;;;;;5065505;28;20054;-63
2021/12/20 12:11:44;;;;;;;15.82;2.90;;;;;;;;;;5064374;28;20051;-63
2021/12/20 12:14:21;;;;;;;21.13;3.33;;;;;;;;;;5064384;28;20048;-63
2021/12/20 12:16:51;;;;;;;23.27;4.10;;;;;;;;;;5057219;28;20053;-63
2021/12/20 12:19:36;;;;;;;18.02;3.58;;;;;;;;;;5057700;28;20075;-63
2021/12/20 12:22:02;;;;;;;21.15;4.38;;;;;;;;;;5056550;28;20059;-63
2021/12/20 12:24:45;;;;;;;21.13;3.95;;;;;;;;;;5038506;28;20607;-63
2021/12/20 12:27:19;;;;;;;28.38;3.70;;;;;;;;;;5050962;28;20396;-63
2021/12/20 12:29:45;;;;;;;21.27;3.30;;;;;;;;;;5028046;28;20511;-63
2021/12/20 12:32:11;;;;;;;18.05;2.90;;;;;;;;;;5054948;28;20052;-63
2021/12/20 12:34:39;;;;;;;21.50;4.00;;;;;;;;;;5056447;28;20083;-63
2021/12/20 12:37:24;;;;;;;22.42;3.67;;;;;;;;;;5054962;28;20087;-63
2021/12/20 12:39:51;;;;;;;20.77;3.22;;;;;;;;;;5055226;28;20052;-63
2021/12/20 12:42:17;;;;;;;16.20;3.40;;;;;;;;;;5055255;28;20062;-63
2021/12/20 12:45:04;;;;;;;23.05;4.03;;;;;;;;;;5054323;28;20410;-62
2021/12/20 12:47:34;;;;;;;15.15;3.22;;;;;;;;;;5056155;28;20143;-63
2021/12/20 12:50:02;;;;;;;22.63;4.00;;;;;;;;;;5055514;28;20060;-63
2021/12/20 12:52:29;;;;;;;30.25;4.18;;;;;;;;;;5054804;28;20052;-63
2021/12/20 12:55:25;;;;;;;23.40;3.75;;;;;;;;;;5055681;28;21907;-63
2021/12/20 12:57:52;;;;;;;19.48;3.45;;;;;;;;;;5053738;28;20041;-63
2021/12/20 13:00:26;;;;;;;18.90;3.17;;;;;;;;;;5053199;28;20581;-62
2021/12/20 13:02:56;;;;;;;19.55;3.00;;;;;;;;;;5054671;28;20114;-63
2021/12/20 13:05:25;;;;;;;21.13;3.08;;;;;;;;;;5064658;28;20048;-63
2021/12/20 13:08:02;;;;;;;22.42;3.78;;;;;;;;;;5055296;28;20464;-63
2021/12/20 13:10:38;;;;;;;21.55;3.35;;;;;;;;;;5055548;28;20387;-63
2021/12/20 13:13:14;;;;;;;20.60;4.32;;;;;;;;;;5061837;28;20051;-63
2021/12/20 13:15:52;;;;;;;18.63;3.75;;;;;;;;;;5056531;28;20552;-63
2021/12/20 13:18:31;;;;;;;18.52;3.45;;;;;;;;;;5064643;28;20046;-63
2021/12/20 13:21:01;;;;;;;25.60;3.00;;;;;;;;;;5067385;28;20803;-63
2021/12/20 13:23:28;;;;;;;23.30;4.13;;;;;;;;;;5050551;28;20044;-63
2021/12/20 13:25:54;;;;;;;14.43;2.85;;;;;;;;;;5063252;28;20044;-63
2021/12/20 13:28:20;;;;;;;17.10;2.95;;;;;;;;;;5060520;28;20055;-63
2021/12/20 13:30:48;;;;;;;15.50;3.17;;;;;;;;;;5040560;28;20633;-64
2021/12/20 13:33:16;;;;;;;23.30;3.70;;;;;;;;;;5056680;28;20040;-62
2021/12/20 13:35:44;;;;;;;13.95;2.90;;;;;;;;;;5054713;28;20052;-64
2021/12/20 13:38:12;;;;;;;17.98;3.38;;;;;;;;;;5055356;28;20055;-64
2021/12/20 13:40:42;;;;;;;15.30;3.30;;;;;;;;;;5055602;28;20143;-64
2021/12/20 13:43:13;;;;;;;12.05;3.47;;;;;;;;;;5053281;28;20264;-64
2021/12/20 13:45:40;;;;;;;14.35;2.60;;;;;;;;;;5054695;28;20056;-63
2021/12/20 13:48:07;;;;;;;21.60;3.72;;;;;;;;;;5062334;28;20052;-64
2021/12/20 13:50:34;;;;;;;17.65;3.83;;;;;;;;;;5056625;28;20041;-64
2021/12/20 13:53:00;;;;;;;30.63;4.88;;;;;;;;;;5053404;28;20136;-64
2021/12/20 13:55:26;;;;;;;18.02;3.10;;;;;;;;;;5065119;28;20091;-64
2021/12/20 13:57:53;;;;;;;20.25;3.45;;;;;;;;;;5060286;28;20060;-64
2021/12/20 14:00:19;;;;;;;19.05;3.92;;;;;;;;;;5061459;28;20059;-64
2021/12/20 14:02:46;;;;;;;17.83;3.65;;;;;;;;;;5058429;28;20136;-65
2021/12/20 14:05:13;;;;;;;18.50;3.47;;;;;;;;;;5056038;28;20048;-66
2021/12/20 14:07:44;;;;;;;9.18;2.70;;;;;;;;;;5061313;28;20145;-63
2021/12/20 14:10:14;;;;;;;17.63;3.42;;;;;;;;;;5054659;28;20516;-63
2021/12/20 14:12:48;;;;;;;18.05;3.10;;;;;;;;;;5053027;28;20106;-64
2021/12/20 14:15:15;;;;;;;17.25;3.03;;;;;;;;;;5055567;28;20136;-64
2021/12/20 14:17:51;;;;;;;14.82;2.80;;;;;;;;;;5065767;28;20048;-63
2021/12/20 14:20:18;;;;;;;16.95;3.00;;;;;;;;;;5056281;28;20418;-63
2021/12/20 14:23:00;;;;;;;17.10;3.03;;;;;;;;;;5052746;28;20063;-62
2021/12/20 14:25:31;;;;;;;17.15;2.50;;;;;;;;;;5053046;28;21140;-63
2021/12/20 14:27:59;;;;;;;14.00;4.28;;;;;;;;;;5051394;28;20052;-62
2021/12/20 14:30:25;;;;;;;16.35;4.00;;;;;;;;;;5059237;28;20504;-62
2021/12/20 14:32:51;;;;;;;20.15;3.10;;;;;;;;;;5055342;28;20222;-62
2021/12/20 14:35:26;;;;;;;15.88;3.17;;;;;;;;;;5069043;28;20105;-62
2021/12/20 14:37:53;;;;;;;14.13;3.33;;;;;;;;;;5063399;28;20049;-62
2021/12/20 14:40:39;;;;;;;24.10;3.72;;;;;;;;;;5058685;28;20048;-62
2021/12/20 14:43:08;;;;;;;16.23;3.08;;;;;;;;;;5054000;28;20745;-62
2021/12/20 14:45:34;;;;;;;19.10;3.30;;;;;;;;;;5062387;28;20055;-62
2021/12/20 14:48:13;;;;;;;16.27;3.00;;;;;;;;;;5057132;28;20084;-62
2021/12/20 14:50:43;;;;;;;18.25;3.78;;;;;;;;;;5060168;28;20043;-62
2021/12/20 14:53:17;;;;;;;14.65;3.28;;;;;;;;;;5063837;28;20045;-62
2021/12/20 14:55:43;;;;;;;17.40;3.28;;;;;;;;;;5057532;28;20240;-62
2021/12/20 14:58:10;;;;;;;20.48;3.95;;;;;;;;;;5060755;28;20134;-62